Time;durP1;ratioP1;P1;durP2;ratioP2;P2;SDS_P1;SDS_P2;PMS_P1;PMS_P2;Temp;Humidity;BMP_temperature;BMP_pressure;BME280_temperature;BME280_humidity;BME280_pressure;Samples;Min_cycle;Max_cycle;Signal;HPM_P1;HPM_P2
2024/02/19 00:02:39;;;;;;;27.60;14.60;;;;;;;4.40;74.40;100881.00;129710;1279;114796;-67
2024/02/19 00:05:41;;;;;;;27.40;15.90;;;;;;;4.41;74.53;100871.78;129590;1278;114632;-66
2024/02/19 00:08:43;;;;;;;28.30;15.00;;;;;;;4.43;74.58;100863.98;129722;1261;115236;-66
2024/02/19 00:11:46;;;;;;;21.50;11.70;;;;;;;4.45;74.61;100859.89;129659;1274;114849;-67
2024/02/19 00:14:48;;;;;;;28.20;14.60;;;;;;;4.47;74.78;100855.43;129626;1273;114843;-66
2024/02/19 00:17:51;;;;;;;22.80;13.10;;;;;;;4.47;74.74;100850.48;129564;1280;114817;-67
2024/02/19 00:20:53;;;;;;;30.90;15.30;;;;;;;4.47;74.82;100845.00;129688;1273;114739;-65
2024/02/19 00:23:55;;;;;;;28.20;15.30;;;;;;;4.46;74.75;100835.99;129478;1259;114813;-65
2024/02/19 00:26:57;;;;;;;31.80;14.70;;;;;;;4.46;74.73;100834.94;129770;1261;114690;-66
2024/02/19 00:30:00;;;;;;;27.20;14.60;;;;;;;4.44;74.81;100832.30;129809;1280;114730;-66
2024/02/19 00:33:02;;;;;;;28.30;15.70;;;;;;;4.42;74.96;100835.70;129703;1259;115288;-65
2024/02/19 00:36:05;;;;;;;23.00;12.90;;;;;;;4.42;75.16;100819.23;129545;1265;114768;-65
2024/02/19 00:39:07;;;;;;;27.40;15.50;;;;;;;4.41;74.86;100810.42;129539;1264;117115;-65
2024/02/19 00:42:10;;;;;;;26.80;15.20;;;;;;;4.41;75.28;100805.83;129524;1271;114714;-69
2024/02/19 00:45:12;;;;;;;28.80;14.70;;;;;;;4.40;75.21;100802.83;129663;1261;115095;-65
2024/02/19 00:48:14;;;;;;;24.30;13.40;;;;;;;4.39;75.33;100798.60;129614;1262;114722;-65
2024/02/19 00:51:17;;;;;;;27.30;16.80;;;;;;;4.38;75.51;100787.11;129722;1269;115116;-65
2024/02/19 00:54:19;;;;;;;16.30;10.20;;;;;;;4.37;75.38;100789.62;129649;1262;114771;-66
2024/02/19 00:57:21;;;;;;;20.60;10.20;;;;;;;4.38;75.50;100787.67;129564;1262;114716;-66
2024/02/19 01:00:26;;;;;;;28.00;16.20;;;;;;;4.37;75.47;100782.90;129553;1265;115397;-66
2024/02/19 01:03:28;;;;;;;25.00;14.50;;;;;;;4.37;75.82;100781.65;129382;1263;114806;-65
2024/02/19 01:06:31;;;;;;;20.50;13.80;;;;;;;4.39;76.07;100774.53;129598;1265;114723;-65
2024/02/19 01:09:34;;;;;;;25.20;13.90;;;;;;;4.41;76.17;100765.14;129631;1261;115170;-66
2024/02/19 01:12:38;;;;;;;28.10;14.80;;;;;;;4.43;76.38;100760.69;129546;1262;114794;-65
2024/02/19 01:15:40;;;;;;;26.80;14.70;;;;;;;4.45;76.21;100750.95;129544;1280;114786;-65
2024/02/19 01:18:43;;;;;;;28.20;14.30;;;;;;;4.48;76.50;100748.05;129753;1261;114806;-66
2024/02/19 01:21:47;;;;;;;28.00;14.70;;;;;;;4.49;76.56;100734.95;129680;1263;115252;-67
2024/02/19 01:24:49;;;;;;;17.20;8.80;;;;;;;4.51;76.57;100726.60;129589;1262;115228;-66
2024/02/19 01:27:51;;;;;;;16.40;8.50;;;;;;;4.51;76.85;100719.52;129393;1261;222257;-66
2024/02/19 01:30:57;;;;;;;12.70;7.10;;;;;;;4.51;76.81;100713.86;129591;1257;115155;-66
2024/02/19 01:34:00;;;;;;;27.40;13.30;;;;;;;4.52;77.06;100709.08;129523;1277;114680;-66
2024/02/19 01:37:04;;;;;;;21.40;12.10;;;;;;;4.55;77.10;100701.94;129558;1271;115285;-66
2024/02/19 01:40:09;;;;;;;22.00;11.70;;;;;;;4.58;77.41;100699.06;129522;1280;114999;-66
2024/02/19 01:43:11;;;;;;;20.60;13.30;;;;;;;4.60;77.41;100694.06;129544;1280;114772;-65
2024/02/19 01:46:15;;;;;;;24.60;15.00;;;;;;;4.63;77.54;100685.17;129672;1267;114854;-66
2024/02/19 01:50:19;;;;;;;23.10;13.20;;;;;;;4.66;77.49;100681.58;131181;1254;114817;-71
2024/02/19 01:54:21;;;;;;;25.10;12.50;;;;;;;4.71;77.47;100673.70;128991;1274;129099;-71
2024/02/19 01:58:25;;;;;;;19.20;10.70;;;;;;;4.77;77.63;100663.85;127614;1286;114915;-71
2024/02/19 02:02:26;;;;;;;23.10;11.90;;;;;;;4.82;77.67;100660.91;125961;1317;114849;-71
2024/02/19 02:06:27;;;;;;;19.10;10.90;;;;;;;4.89;77.75;100651.57;125555;1301;114903;-72
2024/02/19 02:14:53;;;;;;;20.70;12.60;;;;;;;5.02;77.71;100637.49;126006;1310;636041;-70
2024/02/19 02:18:48;;;;;;;17.30;9.50;;;;;;;5.06;77.68;100638.13;127467;1288;128855;-71
2024/02/19 02:23:01;;;;;;;20.30;12.60;;;;;;;5.10;77.74;100631.85;127022;1284;114923;-73
2024/02/19 02:27:03;;;;;;;14.90;9.40;;;;;;;5.15;77.58;100629.42;122451;1293;5444765;-72
2024/02/19 02:31:05;;;;;;;21.40;13.30;;;;;;;5.21;77.53;100628.77;126156;1299;114940;-72
2024/02/19 02:39:28;;;;;;;22.00;13.60;;;;;;;5.32;77.50;100609.92;126051;1301;638506;-72
2024/02/19 02:43:29;;;;;;;25.80;13.30;;;;;;;5.34;77.48;100608.83;128412;1281;127875;-73
2024/02/19 02:47:31;;;;;;;23.40;13.50;;;;;;;5.36;77.58;100602.07;127901;1284;114859;-72
2024/02/19 02:51:38;;;;;;;20.80;11.60;;;;;;;5.38;77.48;100595.63;123139;1293;5468343;-71
2024/02/19 02:55:39;;;;;;;19.90;12.00;;;;;;;5.41;77.45;100592.36;125829;1302;114977;-71
2024/02/19 02:59:41;;;;;;;23.60;14.10;;;;;;;5.44;77.57;100589.12;125095;1305;114967;-72
2024/02/19 03:08:15;;;;;;;25.30;15.00;;;;;;;5.55;77.53;100572.21;126466;1299;636839;-71
2024/02/19 03:12:18;;;;;;;23.90;12.10;;;;;;;5.55;77.64;100567.77;127399;1290;127831;-71
2024/02/19 03:16:20;;;;;;;;;;;;;;;;;;;;;
2024/02/19 03:20:47;;;;;;;21.70;12.00;;;;;;;5.58;77.51;100555.29;125908;1301;636096;-72
2024/02/19 03:24:49;;;;;;;22.90;13.20;;;;;;;5.55;77.47;100551.48;128358;1296;127893;-72
2024/02/19 03:32:50;;;;;;;21.30;12.30;;;;;;;5.53;77.64;100542.52;122865;1289;5457164;-73
2024/02/19 03:36:51;;;;;;;24.20;14.80;;;;;;;5.55;77.86;100537.47;125949;1301;114837;-73
2024/02/19 03:40:52;;;;;;;23.10;12.90;;;;;;;5.57;78.16;100531.77;125102;1310;114864;-73
2024/02/19 03:44:53;;;;;;;22.30;12.70;;;;;;;5.58;78.24;100528.17;124451;1308;130371;-73
2024/02/19 03:53:20;;;;;;;27.00;14.90;;;;;;;5.66;78.62;100524.80;125904;1302;636165;-73
2024/02/19 03:57:20;;;;;;;;;;;;;;;;;;;;;
2024/02/19 04:01:15;;;;;;;;;;;;;;;;;;;;;
2024/02/19 04:05:19;;;;;;;24.30;14.10;;;;;;;5.71;79.62;100512.45;122509;1298;5430299;-72
2024/02/19 04:17:47;;;;;;;20.10;12.80;;;;;;;5.77;80.46;100494.56;125998;1298;636992;-72
2024/02/19 04:21:50;;;;;;;21.70;12.40;;;;;;;5.79;80.80;100495.59;128120;1283;131103;-72
2024/02/19 04:25:52;;;;;;;20.60;12.50;;;;;;;5.83;81.01;100493.89;127297;1287;114949;-72
2024/02/19 04:29:53;;;;;;;19.90;13.60;;;;;;;5.84;81.29;100487.99;122624;1298;5414441;-72
2024/02/19 04:33:54;;;;;;;17.10;11.40;;;;;;;5.86;81.65;100477.31;125655;1304;115447;-72
2024/02/19 04:37:56;;;;;;;18.50;11.80;;;;;;;5.89;81.92;100474.04;124950;1307;114937;-72
2024/02/19 04:46:20;;;;;;;;;;;;;;;;;;;;;
2024/02/19 04:50:16;;;;;;;17.40;11.00;;;;;;;5.98;82.49;100447.20;127799;1304;128913;-72
2024/02/19 04:54:20;;;;;;;16.80;10.30;;;;;;;5.98;82.62;100445.42;127717;1300;115003;-73
2024/02/19 04:58:24;;;;;;;16.50;11.80;;;;;;;5.96;82.88;100439.82;123001;1293;5414738;-73
2024/02/19 05:02:25;;;;;;;16.50;9.70;;;;;;;5.95;83.10;100436.29;126257;1308;114769;-72
2024/02/19 05:06:29;;;;;;;9.70;5.40;;;;;;;5.96;83.37;100424.56;126326;1300;115075;-72
2024/02/19 05:14:58;;;;;;;16.40;11.00;;;;;;;6.00;83.53;100411.69;126211;1297;641892;-73
2024/02/19 05:19:00;;;;;;;19.10;12.80;;;;;;;6.00;83.85;100410.65;127857;1282;128810;-72
2024/02/19 05:23:03;;;;;;;18.30;10.90;;;;;;;6.03;84.00;100403.82;128568;1276;114738;-72
2024/02/19 05:31:01;;;;;;;8.20;5.30;;;;;;;6.08;84.40;100396.24;126755;1305;114855;-73
2024/02/19 05:35:03;;;;;;;13.10;8.40;;;;;;;6.11;84.65;100392.45;126534;1290;114837;-72
2024/02/19 05:39:03;;;;;;;12.90;9.00;;;;;;;6.13;84.83;100388.11;126157;1302;114833;-73
2024/02/19 05:51:29;;;;;;;;;;;;;;;;;;;;;
2024/02/19 05:59:35;;;;;;;9.10;6.30;;;;;;;6.36;85.97;100373.58;124931;1270;5396330;-72
2024/02/19 06:03:39;;;;;;;12.60;7.20;;;;;;;6.41;86.12;100373.44;128314;1299;115368;-72
2024/02/19 06:07:40;;;;;;;9.70;6.70;;;;;;;6.46;86.29;100362.10;126908;1311;114954;-71
2024/02/19 06:11:44;;;;;;;11.40;7.60;;;;;;;6.50;86.14;100363.59;125956;1301;129942;-73
2024/02/19 06:15:42;;;;;;;9.20;6.60;;;;;;;6.54;86.45;100360.60;124991;1309;114846;-72
2024/02/19 06:28:20;;;;;;;8.80;6.90;;;;;;;6.67;86.61;100354.14;128247;1280;128845;-73
2024/02/19 06:32:22;;;;;;;8.60;5.60;;;;;;;6.72;86.70;100348.66;127547;1287;114891;-72
2024/02/19 06:36:24;;;;;;;6.30;3.80;;;;;;;6.79;86.99;100346.66;122131;1298;5432072;-73
2024/02/19 06:44:58;;;;;;;10.70;7.40;;;;;;;6.96;87.14;100342.92;126024;1300;635157;-73
2024/02/19 06:49:00;;;;;;;7.50;5.10;;;;;;;7.03;86.95;100339.48;128473;1289;129681;-72
2024/02/19 06:53:05;;;;;;;7.80;5.90;;;;;;;7.09;86.99;100335.91;127522;1304;114738;-71
2024/02/19 07:01:07;;;;;;;7.20;4.70;;;;;;;7.26;87.34;100332.29;126368;1315;115038;-71
2024/02/19 07:05:08;;;;;;;7.90;5.40;;;;;;;7.36;87.35;100327.67;125861;1303;114938;-72
2024/02/19 07:13:40;;;;;;;6.70;5.20;;;;;;;7.56;87.31;100324.27;125941;1300;638697;-71
2024/02/19 07:17:42;;;;;;;7.50;4.20;;;;;;;7.64;87.14;100321.33;128215;1299;128773;-72
2024/02/19 07:21:25;;;;;;;7.20;4.90;;;;;;;7.75;87.21;100324.84;127475;1287;114926;-71
2024/02/19 07:25:22;;;;;;;;;;;;;;;;;;;;;
2024/02/19 07:29:24;;;;;;;5.10;3.90;;;;;;;7.94;87.17;100320.21;126449;1296;115175;-71
2024/02/19 07:33:24;;;;;;;9.20;5.70;;;;;;;8.01;87.14;100314.95;125721;1305;114801;-73
2024/02/19 07:41:27;;;;;;;;;;;;;;;;;;;;;
2024/02/19 07:54:02;;;;;;;;;;;;;;;;;;;;;
2024/02/19 07:58:05;;;;;;;6.80;4.30;;;;;;;8.42;87.09;100295.56;128527;1277;114882;-73
2024/02/19 08:02:06;;;;;;;5.70;4.30;;;;;;;8.58;86.97;100290.65;123095;1289;5435672;-73
2024/02/19 08:10:40;;;;;;;6.20;4.00;;;;;;;8.90;86.84;100289.67;126741;1295;635348;-73
2024/02/19 08:14:41;;;;;;;;;;;;;;;;;;;;;
2024/02/19 08:26:51;;;;;;;7.70;4.10;;;;;;;9.11;86.14;100291.96;127776;1283;114843;-62
2024/02/19 08:30:54;;;;;;;6.40;3.70;;;;;;;9.15;85.67;100293.45;126470;1292;114956;-62
2024/02/19 08:34:56;;;;;;;5.80;2.80;;;;;;;9.21;85.73;100291.02;125928;1316;114804;-63
2024/02/19 08:38:57;;;;;;;4.40;2.80;;;;;;;9.31;85.55;100292.21;125194;1324;129005;-65
2024/02/19 08:55:32;;;;;;;4.40;2.90;;;;;;;10.60;85.40;100284.91;127248;1302;114814;-64
2024/02/19 08:59:18;;;;;;;5.40;3.10;;;;;;;10.91;84.76;100283.77;122141;1299;5421347;-63
2024/02/19 09:07:21;;;;;;;3.90;1.90;;;;;;;11.13;83.11;100282.64;124706;1310;115206;-62
2024/02/19 09:15:52;;;;;;;1.90;1.40;;;;;;;10.97;82.12;100288.15;125980;1297;638660;-65
2024/02/19 09:20:06;;;;;;;;;;;;;;;;;;;;;
2024/02/19 09:23:59;;;;;;;3.70;1.20;;;;;;;10.72;81.11;100299.89;127224;1302;114936;-71
2024/02/19 09:40:00;;;;;;;0.80;0.40;;;;;;;11.06;80.10;100319.06;125118;1301;129711;-62
2024/02/19 09:48:30;;;;;;;1.30;0.60;;;;;;;11.35;78.68;100328.32;126329;1291;637009;-62
2024/02/19 10:05:11;;;;;;;1.00;0.50;;;;;;;11.33;78.09;100335.59;125521;1299;115063;-61
2024/02/19 10:13:42;;;;;;;1.10;0.70;;;;;;;11.10;77.06;100344.23;126069;1297;636806;-64
2024/02/19 10:17:35;;;;;;;;;;;;;;;;;;;;;
2024/02/19 10:21:38;;;;;;;1.30;0.90;;;;;;;10.88;77.30;100353.77;128212;1296;114782;-63
2024/02/19 10:25:41;;;;;;;2.60;1.80;;;;;;;10.82;77.27;100359.26;124417;1277;5397212;-65
2024/02/19 10:29:46;;;;;;;2.30;0.70;;;;;;;10.73;77.06;100359.30;128317;1282;115149;-64
2024/02/19 10:33:46;;;;;;;2.40;0.80;;;;;;;10.63;77.52;100356.42;126805;1306;114828;-66
2024/02/19 10:37:36;;;;;;;;;;;;;;;;;;;;;
2024/02/19 10:41:39;;;;;;;1.30;1.10;;;;;;;10.46;77.57;100354.16;126067;1295;130158;-64
2024/02/19 10:46:02;;;;;;;0.90;0.60;;;;;;;10.46;77.58;100354.02;125466;1301;114808;-63
2024/02/19 10:49:44;;;;;;;2.60;1.60;;;;;;;10.41;77.22;100354.23;125461;1311;114984;-63
2024/02/19 10:53:46;;;;;;;0.80;0.40;;;;;;;10.31;77.01;100356.11;125455;1317;114901;-62
2024/02/19 10:57:47;;;;;;;1.50;1.10;;;;;;;10.25;76.93;100355.73;124576;1320;114825;-63
2024/02/19 11:06:10;;;;;;;1.50;0.90;;;;;;;10.28;76.94;100361.77;126261;1298;635987;-63
2024/02/19 11:18:22;;;;;;;1.70;0.50;;;;;;;10.50;76.39;100366.52;122567;1284;5488020;-63
2024/02/19 11:22:30;;;;;;;1.50;0.70;;;;;;;10.53;76.40;100367.81;125464;1314;114792;-63
2024/02/19 11:26:24;;;;;;;5.80;3.70;;;;;;;10.61;76.34;100363.11;125196;1308;115252;-63
2024/02/19 11:30:25;;;;;;;1.80;1.60;;;;;;;10.67;76.30;100366.73;124521;1313;127913;-62
2024/02/19 11:39:07;;;;;;;4.50;2.20;;;;;;;10.62;76.49;100366.29;125107;1303;638839;-63
2024/02/19 11:43:11;;;;;;;2.10;1.60;;;;;;;10.71;76.34;100366.39;127388;1288;128886;-62
2024/02/19 11:47:13;;;;;;;2.60;1.50;;;;;;;10.78;76.21;100364.03;126513;1284;114903;-63
2024/02/19 11:51:16;;;;;;;4.40;2.80;;;;;;;10.80;76.39;100364.71;122393;1296;5391783;-63
2024/02/19 11:55:17;;;;;;;5.70;3.60;;;;;;;10.75;75.84;100363.69;126455;1293;114791;-63
2024/02/19 11:59:18;;;;;;;3.40;2.00;;;;;;;10.68;75.76;100361.70;125368;1304;114826;-63
2024/02/19 12:03:12;;;;;;;;;;;;;;;;;;;;;
2024/02/19 12:07:17;;;;;;;3.20;2.50;;;;;;;10.50;76.09;100364.20;123962;1321;114890;-63
2024/02/19 12:15:54;;;;;;;4.30;2.30;;;;;;;10.35;76.20;100365.73;125223;1300;639608;-64
2024/02/19 12:19:44;;;;;;;;;;;;;;;;;;;;;
2024/02/19 12:23:40;;;;;;;;;;;;;;;;;;;;;
2024/02/19 12:27:44;;;;;;;9.30;5.60;;;;;;;10.19;76.57;100368.80;122316;1299;5446317;-73
2024/02/19 12:31:46;;;;;;;7.30;3.60;;;;;;;10.14;76.76;100371.92;125403;1307;115583;-72
2024/02/19 12:35:32;;;;;;;3.50;1.80;;;;;;;10.10;77.01;100369.77;128379;1312;113446;-72
2024/02/19 12:43:46;;;;;;;5.00;3.00;;;;;;;9.97;77.48;100384.99;126565;1295;636173;-73
2024/02/19 12:47:49;;;;;;;3.60;2.20;;;;;;;9.88;77.99;100388.05;128669;1286;128338;-73
2024/02/19 12:51:54;;;;;;;3.50;2.30;;;;;;;9.86;78.38;100397.07;128143;1282;114887;-74
2024/02/19 12:55:58;;;;;;;3.90;2.40;;;;;;;9.88;79.03;100398.58;123484;1296;5464635;-74
2024/02/19 12:59:58;;;;;;;2.20;1.50;;;;;;;9.84;79.32;100397.33;125573;1320;114910;-73
2024/02/19 13:08:24;;;;;;;5.40;2.80;;;;;;;9.61;79.17;100404.44;125976;1300;635384;-73
2024/02/19 13:12:27;;;;;;;1.80;0.80;;;;;;;9.47;79.35;100405.59;128478;1279;127915;-72
2024/02/19 13:24:37;;;;;;;1.90;1.30;;;;;;;9.23;80.69;100425.48;124893;1323;114866;-73
2024/02/19 13:28:39;;;;;;;3.20;1.80;;;;;;;9.19;80.78;100420.31;124918;1313;115068;-72
2024/02/19 13:37:14;;;;;;;3.00;1.70;;;;;;;9.14;80.75;100430.14;125880;1300;639150;-74
2024/02/19 13:41:16;;;;;;;1.80;0.90;;;;;;;9.01;80.79;100428.52;128087;1278;128224;-72
2024/02/19 13:45:23;;;;;;;1.90;1.10;;;;;;;8.88;80.91;100428.86;127303;1289;114894;-73
2024/02/19 13:53:27;;;;;;;1.40;0.90;;;;;;;8.82;81.18;100438.73;126280;1292;114926;-73
2024/02/19 13:57:29;;;;;;;3.40;1.90;;;;;;;8.77;81.27;100446.23;124935;1310;115007;-73
2024/02/19 14:01:20;;;;;;;;;;;;;;;;;;;;;
2024/02/19 14:09:43;;;;;;;13.70;7.90;;;;;;;8.69;81.97;100463.08;125762;1310;638406;-74
2024/02/19 14:13:27;;;;;;;;;;;;;;;8.63;81.47;100465.66;128184;1281;127765;-74
2024/02/19 14:17:19;;;;;;;;;;;;;;;;;;;;;
2024/02/19 14:21:13;;;;;;;7.60;5.60;;;;;;;8.57;81.86;100471.76;126797;1293;114789;-74
2024/02/19 14:25:16;;;;;;;5.00;3.30;;;;;;;8.55;81.93;100480.73;122262;1296;114868;-72
2024/02/19 14:29:18;;;;;;;2.50;1.50;;;;;;;8.53;81.90;100485.60;125407;1306;114968;-73
2024/02/19 14:33:12;;;;;;;4.10;2.90;;;;;;;8.51;81.98;100492.98;124499;1313;115065;-73
2024/02/19 14:41:47;;;;;;;5.90;3.40;;;;;;;8.51;82.01;100505.98;125734;1304;638032;-73
2024/02/19 14:45:49;;;;;;;7.20;3.70;;;;;;;8.47;81.69;100506.98;127904;1292;128834;-74
2024/02/19 14:49:44;;;;;;;;;;;;;;;;;;;;;
2024/02/19 14:53:47;;;;;;;24.60;9.90;;;;;;;8.44;81.81;100512.26;122204;1302;5406029;-74
2024/02/19 14:57:48;;;;;;;12.50;6.50;;;;;;;8.41;81.69;100515.23;125741;1300;115433;-74
2024/02/19 15:01:48;;;;;;;7.40;3.80;;;;;;;8.38;81.85;100521.20;124918;1313;114937;-74
2024/02/19 15:10:24;;;;;;;5.10;3.00;;;;;;;8.29;81.62;100533.63;125648;1302;638143;-73
2024/02/19 15:14:23;;;;;;;;;;;;;;;;;;;;;
2024/02/19 15:18:22;;;;;;;2.60;1.20;;;;;;;8.15;82.02;100541.61;126266;1293;114880;-72
2024/02/19 15:22:15;;;;;;;;;;;;;;;;;;;;;
2024/02/19 15:30:45;;;;;;;1.00;0.50;;;;;;;8.07;81.96;100543.11;125715;1299;638873;-71
2024/02/19 15:38:29;;;;;;;1.00;0.40;;;;;;;7.93;81.31;100557.65;127907;1283;114757;-73
2024/02/19 15:42:36;;;;;;;1.00;0.40;;;;;;;7.88;81.89;100556.06;125040;1282;5494404;-73
2024/02/19 15:46:35;;;;;;;1.20;0.70;;;;;;;7.85;81.77;100568.97;127781;1279;114897;-72
2024/02/19 15:50:35;;;;;;;;;;;;;;;;;;;;;
2024/02/19 15:54:39;;;;;;;1.90;0.70;;;;;;;7.73;81.89;100576.27;126451;1295;129973;-70
2024/02/19 15:58:39;;;;;;;1.40;0.70;;;;;;;7.69;81.92;100582.09;125232;1303;114946;-74
2024/02/19 16:02:17;;;;;;;1.90;0.90;;;;;;;7.63;81.91;100586.57;124195;1319;114982;-74
2024/02/19 16:10:48;;;;;;;;;;;;;;;;;;;;;
2024/02/19 16:14:51;;;;;;;1.60;0.90;;;;;;;7.54;81.84;100601.63;128053;1300;129143;-74
2024/02/19 16:18:47;;;;;;;;;;;;;;;;;;;;;
2024/02/19 16:22:46;;;;;;;;;;;;;;;;;;;;;
2024/02/19 16:26:49;;;;;;;2.60;1.50;;;;;;;7.48;82.42;100613.17;126171;1301;115306;-74
2024/02/19 16:30:23;;;;;;;2.80;1.80;;;;;;;7.46;82.29;100621.05;125528;1323;114976;-74
2024/02/19 16:42:45;;;;;;;;;;;;;;;;;;;;;
2024/02/19 16:46:49;;;;;;;3.40;0.90;;;;;;;7.39;82.85;100644.90;125779;1303;114906;-73
2024/02/19 16:59:24;;;;;;;2.50;1.10;;;;;;;7.41;83.33;100643.61;125906;1300;638801;-74
2024/02/19 17:03:20;;;;;;;1.90;1.60;;;;;;;7.40;83.11;100648.25;126974;1306;128116;-73
2024/02/19 17:07:18;;;;;;;2.50;2.10;;;;;;;7.39;83.56;100645.80;126619;1292;114961;-72
2024/02/19 17:11:12;;;;;;;2.90;1.90;;;;;;;7.38;83.60;100655.78;122474;1295;5425573;-73
2024/02/19 17:14:56;;;;;;;2.40;1.60;;;;;;;7.35;83.63;100655.68;125342;1305;115000;-72
2024/02/19 17:27:26;;;;;;;3.70;2.50;;;;;;;7.38;84.11;100660.96;126099;1300;639340;-73
2024/02/19 17:31:29;;;;;;;2.70;2.20;;;;;;;7.36;84.58;100662.77;128737;1289;127512;-73
2024/02/19 17:35:23;;;;;;;3.10;2.10;;;;;;;7.36;84.81;100669.50;127903;1283;115032;-72
2024/02/19 17:39:23;;;;;;;;;;;;;;;;;;;;;
2024/02/19 17:47:29;;;;;;;5.80;3.80;;;;;;;7.40;85.50;100672.95;127045;1308;114878;-73
2024/02/19 17:51:31;;;;;;;4.10;2.80;;;;;;;7.40;85.16;100673.66;126905;1297;129978;-72
2024/02/19 17:55:31;;;;;;;3.40;2.40;;;;;;;7.41;85.10;100678.24;126545;1303;114853;-73
2024/02/19 17:59:34;;;;;;;4.80;2.90;;;;;;;7.41;85.67;100677.73;125909;1309;114964;-73
2024/02/19 18:07:54;;;;;;;4.60;3.10;;;;;;;7.42;86.03;100686.05;126129;1302;636117;-73
2024/02/19 18:11:57;;;;;;;5.90;3.60;;;;;;;7.41;86.15;100687.66;129251;1270;128100;-73
2024/02/19 18:20:01;;;;;;;7.40;4.10;;;;;;;7.42;86.35;100687.13;123822;1279;5488667;-73
2024/02/19 18:24:05;;;;;;;8.00;4.60;;;;;;;7.42;86.58;100693.14;126085;1316;114848;-73
2024/02/19 18:28:03;;;;;;;7.10;4.10;;;;;;;7.42;86.48;100689.05;124881;1317;115271;-72
2024/02/19 18:36:25;;;;;;;7.30;4.90;;;;;;;7.50;86.76;100689.55;126659;1294;636456;-72
2024/02/19 18:40:32;;;;;;;10.30;5.30;;;;;;;7.50;86.73;100687.07;127977;1302;128839;-73
2024/02/19 18:44:34;;;;;;;7.30;4.50;;;;;;;7.51;86.96;100688.98;127885;1286;114858;-73
2024/02/19 18:48:37;;;;;;;3.60;2.40;;;;;;;7.51;87.17;100691.83;122469;1295;5499317;-73
2024/02/19 18:52:38;;;;;;;4.00;2.60;;;;;;;7.50;87.26;100693.98;125698;1304;114961;-73
2024/02/19 19:00:41;;;;;;;7.20;3.20;;;;;;;7.45;87.48;100701.41;125140;1307;114966;-73
2024/02/19 19:04:45;;;;;;;8.20;2.60;;;;;;;7.43;87.65;100697.38;124537;1324;128020;-73
2024/02/19 19:13:30;;;;;;;3.10;2.70;;;;;;;7.38;87.63;100690.63;125762;1304;638546;-73
2024/02/19 19:17:30;;;;;;;4.50;2.80;;;;;;;7.32;87.58;100684.91;127120;1287;128691;-73
2024/02/19 19:21:32;;;;;;;4.00;2.20;;;;;;;7.27;87.68;100681.87;126095;1310;114919;-72
2024/02/19 19:25:31;;;;;;;;;;;;;;;;;;;;;
2024/02/19 19:34:06;;;;;;;6.10;2.90;;;;;;;7.22;87.72;100687.17;125796;1312;637018;-71
2024/02/19 19:38:10;;;;;;;4.60;3.10;;;;;;;7.19;88.01;100697.21;128540;1278;128215;-71
2024/02/19 19:46:14;;;;;;;5.90;2.60;;;;;;;7.21;88.14;100698.91;124126;1282;5437102;-73
2024/02/19 19:50:42;;;;;;;4.50;2.40;;;;;;;7.22;88.04;100695.89;126720;1303;114945;-72
2024/02/19 19:54:40;;;;;;;6.60;3.20;;;;;;;7.24;88.07;100695.30;126547;1299;114756;-73
2024/02/19 19:58:42;;;;;;;6.50;3.40;;;;;;;7.24;88.36;100697.24;126498;1304;114964;-74
2024/02/19 20:02:43;;;;;;;6.40;3.30;;;;;;;7.24;88.04;100695.46;126146;1309;129657;-73
2024/02/19 20:06:44;;;;;;;5.80;2.80;;;;;;;7.24;88.33;100694.40;125853;1297;114875;-73
2024/02/19 20:10:46;;;;;;;5.00;2.40;;;;;;;7.24;88.11;100691.03;125615;1308;115009;-73
2024/02/19 20:14:48;;;;;;;4.70;2.60;;;;;;;7.22;88.01;100694.28;125618;1307;114971;-73
2024/02/19 20:22:50;;;;;;;6.80;2.90;;;;;;;7.16;87.97;100703.88;124905;1312;129858;-73
2024/02/19 20:26:52;;;;;;;6.40;2.90;;;;;;;7.13;87.97;100707.13;124745;1309;114952;-73
2024/02/19 20:43:24;;;;;;;5.40;2.40;;;;;;;7.05;88.19;100700.27;126240;1305;635548;-72
2024/02/19 20:47:28;;;;;;;5.30;2.70;;;;;;;6.99;88.25;100696.71;128859;1295;128611;-72
2024/02/19 20:55:32;;;;;;;6.80;3.20;;;;;;;6.83;87.96;100701.95;123378;1289;5456155;-71
2024/02/19 20:59:35;;;;;;;7.40;4.30;;;;;;;6.73;87.88;100706.12;125984;1303;114836;-72
2024/02/19 21:03:35;;;;;;;6.40;3.90;;;;;;;6.64;88.11;100702.64;125673;1305;114779;-72
2024/02/19 21:16:09;;;;;;;8.20;4.10;;;;;;;6.42;88.30;100713.50;128788;1277;129019;-73
2024/02/19 21:19:19;;;;;;;;;;;;;;;;;;;;;
2024/02/19 21:23:12;;;;;;;7.00;3.50;;;;;;;6.32;88.80;100715.53;128324;1290;114828;-74
2024/02/19 21:27:14;;;;;;;6.30;4.00;;;;;;;6.31;89.07;100711.46;123348;1289;114897;-75
2024/02/19 21:31:16;;;;;;;8.00;3.90;;;;;;;6.33;89.35;100711.95;126411;1295;114846;-74
2024/02/19 21:35:38;;;;;;;7.30;3.70;;;;;;;6.36;89.46;100711.17;126132;1298;114843;-73
2024/02/19 21:39:21;;;;;;;5.40;3.00;;;;;;;6.39;89.52;100700.63;126018;1308;129956;-75
2024/02/19 21:43:01;;;;;;;;;;;;;;;;;;;;;
2024/02/19 21:51:36;;;;;;;3.70;2.20;;;;;;;6.51;89.53;100701.73;125785;1297;638094;-73
2024/02/19 21:55:39;;;;;;;4.40;2.20;;;;;;;6.50;89.42;100707.08;128959;1276;128118;-73
2024/02/19 21:59:42;;;;;;;4.60;2.40;;;;;;;6.51;89.64;100713.27;128570;1295;114904;-70
2024/02/19 22:03:43;;;;;;;5.10;1.80;;;;;;;6.55;89.67;100712.81;124459;1279;5423268;-73
2024/02/19 22:07:44;;;;;;;3.40;2.00;;;;;;;6.60;89.71;100716.05;126845;1292;114884;-73
2024/02/19 22:11:43;;;;;;;;;;;;;;;;;;;;;
2024/02/19 22:28:35;;;;;;;4.40;2.20;;;;;;;6.95;90.03;100694.15;128617;1273;114735;-72
2024/02/19 22:32:36;;;;;;;3.60;2.70;;;;;;;7.02;90.08;100689.88;123744;1286;5426153;-73
2024/02/19 22:36:37;;;;;;;5.60;2.50;;;;;;;7.09;90.23;100691.12;125940;1296;114903;-73
2024/02/19 22:44:40;;;;;;;3.30;2.00;;;;;;;7.21;90.32;100682.07;124882;1313;114901;-73
2024/02/19 22:48:41;;;;;;;5.20;3.00;;;;;;;7.25;90.24;100676.60;124255;1317;129744;-75
2024/02/19 23:05:47;;;;;;;4.50;2.40;;;;;;;7.37;90.15;100678.56;125921;1310;637530;-72
2024/02/19 23:13:42;;;;;;;5.00;2.60;;;;;;;7.42;90.19;100684.08;127475;1296;114841;-73
2024/02/19 23:17:44;;;;;;;4.80;2.50;;;;;;;7.45;90.24;100683.98;122585;1292;5413638;-72
2024/02/19 23:21:46;;;;;;;4.80;3.30;;;;;;;7.48;90.17;100686.22;125273;1309;114890;-74
2024/02/19 23:25:52;;;;;;;5.10;2.80;;;;;;;7.51;90.26;100687.90;124796;1312;116520;-74
2024/02/19 23:34:21;;;;;;;6.00;3.50;;;;;;;7.61;90.27;100678.38;125880;1312;638483;-75
2024/02/19 23:38:25;;;;;;;4.60;3.00;;;;;;;7.62;89.92;100680.46;127856;1300;128932;-74
2024/02/19 23:42:32;;;;;;;6.20;3.30;;;;;;;7.64;90.37;100681.48;126940;1292;115012;-74
2024/02/19 23:46:26;;;;;;;5.40;3.30;;;;;;;7.65;90.15;100687.31;122333;1298;5430481;-74
2024/02/19 23:50:28;;;;;;;5.80;3.90;;;;;;;7.66;90.10;100681.59;125733;1319;114898;-75
